Time;durP1;ratioP1;P1;durP2;ratioP2;P2;SDS_P1;SDS_P2;PMS_P1;PMS_P2;Temp;Humidity;BMP_temperature;BMP_pressure;BME280_temperature;BME280_humidity;BME280_pressure;Samples;Min_cycle;Max_cycle;Signal;HPM_P1;HPM_P2
2022/10/20 15:47:51;;;;;;;2.00;1.90;;;19.00;99.90;;;;;;5101476;27;20919;-69
2022/10/20 15:50:18;;;;;;;2.70;2.50;;;18.90;99.90;;;;;;5049001;28;20448;-69
2022/10/20 15:52:45;;;;;;;2.33;2.23;;;19.00;99.90;;;;;;5048926;28;20536;-70
2022/10/20 15:55:21;;;;;;;2.17;2.07;;;19.00;99.90;;;;;;5049504;28;20543;-69
2022/10/20 15:57:49;;;;;;;2.57;2.47;;;19.10;99.90;;;;;;5074249;28;20562;-68
2022/10/20 16:00:17;;;;;;;2.40;2.30;;;19.10;99.90;;;;;;5089146;28;20439;-68
2022/10/20 16:02:44;;;;;;;2.27;2.17;;;19.20;99.90;;;;;;5089026;28;20481;-69
2022/10/20 16:05:12;;;;;;;2.20;2.10;;;19.30;99.90;;;;;;5089041;28;20967;-68
2022/10/20 16:07:39;;;;;;;2.80;2.50;;;19.30;99.90;;;;;;5077622;28;20483;-68
2022/10/20 16:10:09;;;;;;;2.90;2.80;;;19.30;99.90;;;;;;5068632;28;20445;-68
2022/10/20 16:12:36;;;;;;;2.30;2.10;;;19.30;99.90;;;;;;5068462;28;20471;-68
2022/10/20 16:15:04;;;;;;;2.87;2.67;;;19.30;99.90;;;;;;5081760;28;20450;-69
2022/10/20 16:17:31;;;;;;;2.63;2.43;;;19.30;99.90;;;;;;5088629;28;20502;-68
2022/10/20 16:19:58;;;;;;;2.80;2.70;;;19.40;99.90;;;;;;5088835;28;20496;-69
2022/10/20 16:22:26;;;;;;;4.33;3.30;;;19.50;99.90;;;;;;5088557;28;20438;-69
2022/10/20 16:24:54;;;;;;;3.20;3.00;;;19.50;99.90;;;;;;5079402;28;20449;-69
2022/10/20 16:27:21;;;;;;;5.77;3.87;;;19.50;99.90;;;;;;5088515;28;20923;-67
2022/10/20 16:29:50;;;;;;;6.77;4.73;;;19.50;99.90;;;;;;5088560;28;20473;-69
2022/10/20 16:32:16;;;;;;;8.20;4.80;;;19.60;99.90;;;;;;5088291;28;20457;-68
2022/10/20 16:34:43;;;;;;;8.83;5.63;;;19.60;99.90;;;;;;5077842;28;20444;-70
2022/10/20 16:37:10;;;;;;;8.13;5.33;;;19.60;99.90;;;;;;5067993;28;20464;-68
2022/10/20 16:39:38;;;;;;;6.17;5.00;;;19.80;99.90;;;;;;5068136;28;20546;-68
2022/10/20 16:44:32;;;;;;;9.37;5.97;;;20.00;99.90;;;;;;5166609;27;20615;-67
2022/10/20 16:46:59;;;;;;;7.47;5.97;;;20.00;99.90;;;;;;5132402;27;20548;-67
2022/10/20 16:49:26;;;;;;;9.27;6.00;;;20.10;99.90;;;;;;5130132;28;20444;-67
2022/10/20 16:51:53;;;;;;;6.43;5.30;;;20.10;99.90;;;;;;5129410;28;20528;-66
2022/10/20 16:54:20;;;;;;;7.87;5.43;;;20.10;99.90;;;;;;5129629;27;20442;-67
2022/10/20 16:56:47;;;;;;;7.13;5.10;;;20.10;99.90;;;;;;5130457;27;20882;-68
2022/10/20 16:59:15;;;;;;;6.73;5.90;;;20.20;99.90;;;;;;5130336;28;20455;-69
2022/10/20 17:01:43;;;;;;;6.80;5.53;;;20.10;99.90;;;;;;5119652;28;20446;-68
2022/10/20 17:04:11;;;;;;;9.17;5.90;;;20.20;99.90;;;;;;5109048;28;20530;-68
2022/10/20 17:06:38;;;;;;;8.30;6.77;;;20.20;99.90;;;;;;5109283;28;20462;-68
2022/10/20 17:09:06;;;;;;;9.93;6.07;;;20.30;99.90;;;;;;5109346;28;20445;-68
2022/10/20 17:11:34;;;;;;;9.03;5.53;;;20.30;99.90;;;;;;5119871;28;20854;-68
2022/10/20 17:14:01;;;;;;;5.50;5.00;;;20.30;99.90;;;;;;5129444;27;20452;-68
2022/10/20 17:16:30;;;;;;;7.70;4.33;;;20.40;99.90;;;;;;5129927;28;20507;-67
2022/10/20 17:19:00;;;;;;;5.63;5.13;;;20.40;99.90;;;;;;5129846;28;20535;-69
2022/10/20 17:21:27;;;;;;;8.30;5.93;;;20.40;99.90;;;;;;5117243;28;20534;-69
2022/10/20 17:23:55;;;;;;;6.00;5.40;;;20.50;99.90;;;;;;5109026;28;20928;-69
2022/10/20 17:26:23;;;;;;;5.53;4.47;;;20.50;99.90;;;;;;5110111;28;20898;-68
2022/10/20 17:28:53;;;;;;;6.37;5.67;;;20.50;99.90;;;;;;5111011;28;20484;-70
2022/10/20 17:31:21;;;;;;;6.10;4.50;;;20.60;99.90;;;;;;5120620;28;20444;-69
2022/10/20 17:33:48;;;;;;;5.23;4.53;;;20.60;99.90;;;;;;5130343;28;20436;-67
2022/10/20 17:36:17;;;;;;;6.90;4.97;;;20.70;99.90;;;;;;5130020;28;20492;-68
2022/10/20 17:38:44;;;;;;;8.10;5.13;;;20.70;99.90;;;;;;5129929;28;20933;-69
2022/10/20 17:41:14;;;;;;;5.23;4.73;;;20.70;99.90;;;;;;5117520;28;20792;-67
